createdAt,value
2023-09-07T00:02:07.065Z,75.60
2023-09-07T00:04:39.686Z,75.59
2023-09-07T00:07:12.598Z,76.14
2023-09-07T00:09:45.254Z,76.34
2023-09-07T00:12:17.858Z,76.04
2023-09-07T00:14:50.415Z,76.45
2023-09-07T00:17:23.844Z,76.43
2023-09-07T00:19:58.224Z,76.32
2023-09-07T00:22:30.121Z,76.97
2023-09-07T00:25:02.350Z,76.65
2023-09-07T00:27:35.870Z,76.40
2023-09-07T00:30:11.127Z,76.09
2023-09-07T00:32:43.823Z,75.93
2023-09-07T00:35:16.440Z,76.12
2023-09-07T00:37:49.014Z,76.16
2023-09-07T00:40:21.703Z,75.98
2023-09-07T00:42:54.304Z,75.54
2023-09-07T00:45:26.990Z,75.44
2023-09-07T00:47:59.593Z,75.89
2023-09-07T00:50:32.247Z,76.08
2023-09-07T00:53:04.872Z,76.28
2023-09-07T00:55:37.503Z,76.26
2023-09-07T00:58:10.118Z,76.37
2023-09-07T01:00:42.746Z,76.66
2023-09-07T01:03:15.802Z,77.15
2023-09-07T01:06:06.241Z,76.81
2023-09-07T01:08:45.257Z,76.91
2023-09-07T01:11:27.785Z,77.35
2023-09-07T01:14:00.343Z,77.16
2023-09-07T01:16:35.466Z,77.10
2023-09-07T01:19:11.110Z,77.08
2023-09-07T01:21:43.658Z,76.82
2023-09-07T01:24:16.049Z,76.64
2023-09-07T01:26:50.046Z,77.64
2023-09-07T01:29:22.823Z,77.35
2023-09-07T01:31:56.463Z,77.39
2023-09-07T01:34:29.099Z,77.58
2023-09-07T01:37:01.966Z,77.81
2023-09-07T01:39:34.709Z,78.30
2023-09-07T01:42:07.132Z,78.30
2023-09-07T01:44:39.622Z,78.38
2023-09-07T01:47:12.530Z,78.34
2023-09-07T01:52:17.511Z,79.68
2023-09-07T01:54:50.602Z,79.84
2023-09-07T01:57:23.263Z,80.02
2023-09-07T01:59:56.060Z,79.48
2023-09-07T02:02:28.637Z,79.57
2023-09-07T02:05:01.276Z,79.79
2023-09-07T02:07:34.666Z,80.01
2023-09-07T02:10:08.678Z,80.01
2023-09-07T02:12:41.481Z,79.76
2023-09-07T02:15:15.686Z,79.55
2023-09-07T02:17:48.395Z,79.90
2023-09-07T02:20:26.509Z,79.78
2023-09-07T02:22:59.275Z,80.34
2023-09-07T02:25:31.991Z,80.22
2023-09-07T02:28:05.145Z,80.86
2023-09-07T02:30:38.194Z,81.37
2023-09-07T02:33:10.874Z,81.22
2023-09-07T02:35:43.937Z,80.78
2023-09-07T02:38:16.699Z,80.56
2023-09-07T02:40:49.764Z,80.58
2023-09-07T02:43:23.837Z,80.73
2023-09-07T02:45:57.447Z,80.53
2023-09-07T02:48:30.528Z,80.39
2023-09-07T02:51:04.442Z,80.75
2023-09-07T02:53:37.062Z,81.08
2023-09-07T02:56:11.325Z,81.12
2023-09-07T02:58:44.600Z,81.24
2023-09-07T03:01:18.774Z,81.72
2023-09-07T03:03:51.568Z,82.35
2023-09-07T03:06:24.492Z,82.04
2023-09-07T03:08:58.445Z,82.38
2023-09-07T03:11:32.653Z,82.77
2023-09-07T03:14:05.726Z,83.07
2023-09-07T03:19:24.479Z,84.51
2023-09-07T03:21:57.389Z,85.23
2023-09-07T03:24:31.905Z,85.76
2023-09-07T03:27:05.046Z,86.30
2023-09-07T03:29:38.313Z,86.63
2023-09-07T03:32:11.502Z,86.54
2023-09-07T03:34:44.141Z,86.47
2023-09-07T03:37:17.144Z,86.70
2023-09-07T03:39:49.483Z,87.07
2023-09-07T03:42:22.005Z,87.02
2023-09-07T03:44:55.065Z,86.65
2023-09-07T03:47:30.813Z,86.25
2023-09-07T03:50:03.379Z,86.32
2023-09-07T03:52:36.327Z,86.84
2023-09-07T03:55:10.758Z,87.12
2023-09-07T03:57:43.702Z,87.41
2023-09-07T04:00:17.127Z,87.70
2023-09-07T04:02:52.550Z,88.18
2023-09-07T04:05:25.254Z,88.55
2023-09-07T04:07:58.579Z,88.53
2023-09-07T04:10:31.020Z,88.50
2023-09-07T04:13:04.360Z,88.36
2023-09-07T04:15:45.736Z,88.31
2023-09-07T04:18:21.518Z,87.92
2023-09-07T04:20:57.615Z,87.41
2023-09-07T04:23:30.182Z,87.35
2023-09-07T04:26:12.949Z,87.08
2023-09-07T04:28:46.005Z,86.46
2023-09-07T04:31:18.875Z,85.82
2023-09-07T04:33:51.996Z,85.56
2023-09-07T04:36:25.029Z,84.98
2023-09-07T04:38:57.597Z,84.33
2023-09-07T04:41:30.311Z,83.95
2023-09-07T04:44:03.263Z,83.31
2023-09-07T04:46:36.088Z,82.71
2023-09-07T04:49:09.725Z,81.38
2023-09-07T04:51:42.416Z,79.88
2023-09-07T04:54:15.172Z,78.87
2023-09-07T04:56:48.078Z,78.08
2023-09-07T04:59:20.598Z,77.24
2023-09-07T05:01:52.945Z,76.33
2023-09-07T05:04:25.440Z,75.43
2023-09-07T05:06:59.529Z,74.53
2023-09-07T05:09:33.069Z,74.19
2023-09-07T05:12:05.764Z,73.73
2023-09-07T05:14:38.397Z,74.24
2023-09-07T05:17:10.866Z,73.41
2023-09-07T05:19:44.752Z,72.04
2023-09-07T05:22:19.461Z,70.67
2023-09-07T05:24:53.010Z,70.02
2023-09-07T05:27:25.591Z,69.76
2023-09-07T05:29:58.466Z,68.60
2023-09-07T05:32:31.106Z,67.07
2023-09-07T05:35:04.198Z,66.18
2023-09-07T05:37:37.878Z,65.43
2023-09-07T05:40:11.853Z,64.68
2023-09-07T05:42:44.707Z,63.42
2023-09-07T05:45:17.422Z,62.63
2023-09-07T05:47:50.499Z,61.80
2023-09-07T05:50:23.609Z,61.29
2023-09-07T05:52:56.268Z,60.52
2023-09-07T05:55:29.091Z,60.03
2023-09-07T05:58:05.277Z,59.17
2023-09-07T06:00:40.102Z,58.47
2023-09-07T06:03:13.101Z,58.20
2023-09-07T06:05:45.967Z,58.17
2023-09-07T06:08:28.583Z,57.31
2023-09-07T06:11:01.276Z,57.10
2023-09-07T06:13:34.796Z,56.44
2023-09-07T06:16:07.862Z,56.01
2023-09-07T06:18:41.028Z,55.83
2023-09-07T06:58:33.691Z,47.16
2023-09-07T07:01:07.413Z,47.13
2023-09-07T07:03:40.211Z,46.56
2023-09-07T07:06:12.950Z,45.76
2023-09-07T07:08:45.726Z,46.03
2023-09-07T07:11:18.390Z,45.78
2023-09-07T07:13:51.404Z,45.08
2023-09-07T07:16:24.442Z,44.36
2023-09-07T07:22:04.312Z,43.30
2023-09-07T07:24:38.367Z,42.52
2023-09-07T07:27:12.104Z,41.59
2023-09-07T07:29:45.825Z,41.62
2023-09-07T07:32:18.415Z,40.84
2023-09-07T07:34:52.726Z,40.56
2023-09-07T07:37:25.446Z,39.94
2023-09-07T07:39:58.001Z,39.48
2023-09-07T07:42:30.523Z,39.00
2023-09-07T07:45:03.125Z,38.59
2023-09-07T07:47:37.306Z,38.71
2023-09-07T07:50:10.769Z,38.04
2023-09-07T07:52:43.523Z,37.65
2023-09-07T07:55:16.394Z,37.85
2023-09-07T07:57:49.015Z,37.64
2023-09-07T08:00:22.188Z,37.13
2023-09-07T08:02:55.927Z,37.13
2023-09-07T08:05:28.739Z,37.24
2023-09-07T08:08:01.425Z,37.14
2023-09-07T08:10:41.990Z,36.60
2023-09-07T08:13:15.187Z,36.17
2023-09-07T08:15:49.359Z,36.22
2023-09-07T08:18:21.543Z,35.63
2023-09-07T08:20:55.373Z,34.86
2023-09-07T08:23:27.840Z,34.53
2023-09-07T08:26:01.480Z,34.26
2023-09-07T08:28:34.572Z,33.53
2023-09-07T08:31:07.399Z,33.32
2023-09-07T08:33:41.863Z,33.12
2023-09-07T08:36:16.020Z,33.13
2023-09-07T08:38:49.333Z,33.17
2023-09-07T08:41:21.897Z,33.44
2023-09-07T08:43:56.357Z,33.19
2023-09-07T08:46:29.021Z,34.03
2023-09-07T08:49:02.927Z,34.62
2023-09-07T08:51:37.617Z,35.54
2023-09-07T08:54:11.429Z,35.35
2023-09-07T08:56:43.931Z,35.44
2023-09-07T08:59:16.646Z,35.09
2023-09-07T09:01:49.158Z,35.69
2023-09-07T09:04:24.471Z,35.47
2023-09-07T09:06:57.138Z,35.04
2023-09-07T09:09:30.898Z,34.82
2023-09-07T09:12:16.985Z,35.30
2023-09-07T09:14:49.551Z,35.31
2023-09-07T09:17:21.966Z,35.25
2023-09-07T09:19:54.366Z,35.33
2023-09-07T09:22:26.768Z,35.69
2023-09-07T09:24:59.204Z,35.79
2023-09-07T09:27:31.776Z,35.39
2023-09-07T09:30:05.817Z,35.63
2023-09-07T09:32:38.730Z,34.95
2023-09-07T09:35:11.965Z,34.19
2023-09-07T09:37:50.226Z,33.74
2023-09-07T09:40:22.691Z,33.81
2023-09-07T09:42:55.264Z,33.64
2023-09-07T09:45:27.890Z,33.23
2023-09-07T09:48:04.488Z,33.03
2023-09-07T09:50:38.836Z,32.76
2023-09-07T09:53:11.512Z,32.34
2023-09-07T09:55:43.987Z,32.31
2023-09-07T09:58:19.502Z,31.78
2023-09-07T10:00:56.999Z,31.61
2023-09-07T10:03:44.859Z,31.54
2023-09-07T10:06:30.979Z,31.24
2023-09-07T10:09:08.717Z,30.82
2023-09-07T10:11:41.488Z,31.33
2023-09-07T10:14:15.738Z,30.94
2023-09-07T10:16:54.416Z,30.62
2023-09-07T10:19:27.752Z,30.50
2023-09-07T10:22:00.235Z,30.29
2023-09-07T10:24:39.356Z,30.11
2023-09-07T10:27:12.674Z,30.17
2023-09-07T10:29:56.422Z,29.98
2023-09-07T10:32:28.851Z,29.56
2023-09-07T10:35:02.922Z,29.78
2023-09-07T10:37:34.686Z,29.36
2023-09-07T10:40:10.140Z,29.14
2023-09-07T10:42:42.782Z,29.20
2023-09-07T10:45:17.599Z,29.24
2023-09-07T10:47:50.073Z,29.34
2023-09-07T10:50:23.047Z,28.85
2023-09-07T10:52:56.983Z,28.46
2023-09-07T10:55:29.673Z,28.07
2023-09-07T10:58:02.709Z,27.88
2023-09-07T11:00:35.461Z,28.12
2023-09-07T11:03:16.171Z,27.95
2023-09-07T11:05:49.154Z,26.94
2023-09-07T11:08:21.682Z,26.46
2023-09-07T11:10:54.488Z,26.08
2023-09-07T11:13:27.787Z,25.63
2023-09-07T11:16:01.340Z,25.39
2023-09-07T11:18:34.464Z,25.63
2023-09-07T11:21:08.769Z,25.62
2023-09-07T11:23:41.402Z,25.38
2023-09-07T11:26:14.200Z,24.94
2023-09-07T11:28:49.322Z,25.09
2023-09-07T11:31:22.920Z,24.93
2023-09-07T11:33:57.599Z,25.04
2023-09-07T11:36:30.057Z,24.44
2023-09-07T11:39:04.213Z,23.80
2023-09-07T11:41:36.996Z,24.48
2023-09-07T11:44:10.032Z,25.21
2023-09-07T11:46:42.606Z,25.60
2023-09-07T11:49:16.187Z,25.67
2023-09-07T11:51:48.984Z,25.70
2023-09-07T11:54:21.448Z,25.74
2023-09-07T11:56:53.881Z,25.68
2023-09-07T11:59:26.821Z,25.63
2023-09-07T12:01:59.742Z,25.75
2023-09-07T12:04:32.573Z,26.05
2023-09-07T12:07:05.504Z,25.92
2023-09-07T12:09:37.986Z,25.79
2023-09-07T12:12:12.208Z,25.69
2023-09-07T12:14:44.166Z,25.65
2023-09-07T12:17:16.655Z,25.67
2023-09-07T12:19:49.225Z,25.81
2023-09-07T12:22:21.797Z,25.76
2023-09-07T12:25:10.356Z,25.74
2023-09-07T12:27:32.060Z,25.91
2023-09-07T12:30:04.004Z,26.06
2023-09-07T12:32:37.051Z,26.05
2023-09-07T12:35:10.623Z,26.52
2023-09-07T12:37:43.184Z,26.83
2023-09-07T12:40:16.381Z,27.28
2023-09-07T12:42:49.324Z,27.50
2023-09-07T12:45:21.789Z,28.06
2023-09-07T12:47:54.607Z,28.80
2023-09-07T12:50:27.181Z,29.29
2023-09-07T12:52:59.934Z,29.35
2023-09-07T12:55:32.790Z,29.42
2023-09-07T12:58:05.663Z,29.61
2023-09-07T13:00:38.085Z,30.15
2023-09-07T13:03:10.625Z,30.44
2023-09-07T13:05:43.220Z,31.04
2023-09-07T13:08:15.735Z,31.08
2023-09-07T13:10:48.262Z,31.21
2023-09-07T13:13:22.665Z,31.63
2023-09-07T13:15:55.064Z,31.18
2023-09-07T13:18:27.967Z,31.34
2023-09-07T13:21:03.377Z,31.87
2023-09-07T13:23:36.066Z,31.82
2023-09-07T13:26:08.494Z,31.40
2023-09-07T13:28:41.774Z,31.86
2023-09-07T13:31:14.411Z,31.89
2023-09-07T13:33:46.996Z,32.07
2023-09-07T13:36:19.364Z,32.00
2023-09-07T13:38:53.331Z,32.08
2023-09-07T13:41:27.517Z,32.19
2023-09-07T13:44:00.305Z,32.63
2023-09-07T13:46:33.171Z,33.04
2023-09-07T13:49:05.750Z,32.91
2023-09-07T13:51:41.407Z,32.91
2023-09-07T13:54:13.769Z,33.43
2023-09-07T13:56:48.060Z,33.43
2023-09-07T13:59:20.505Z,33.07
2023-09-07T14:01:53.499Z,32.75
2023-09-07T14:04:26.740Z,32.72
2023-09-07T14:06:59.252Z,32.85
2023-09-07T14:09:31.822Z,32.66
2023-09-07T14:12:04.993Z,32.47
2023-09-07T14:14:37.504Z,32.40
2023-09-07T14:17:10.172Z,31.71
2023-09-07T14:19:42.819Z,31.54
2023-09-07T14:22:15.956Z,31.72
2023-09-07T14:24:48.391Z,31.69
2023-09-07T14:27:20.788Z,31.75
2023-09-07T14:29:54.118Z,31.93
2023-09-07T14:32:26.706Z,31.55
2023-09-07T14:34:59.698Z,31.66
2023-09-07T14:37:32.250Z,32.14
2023-09-07T14:40:04.946Z,32.75
2023-09-07T14:42:38.718Z,32.88
2023-09-07T14:45:12.041Z,33.06
2023-09-07T14:47:46.122Z,32.89
2023-09-07T14:50:18.855Z,32.60
2023-09-07T14:52:51.645Z,32.62
2023-09-07T14:55:24.832Z,32.94
2023-09-07T14:57:57.939Z,32.94
2023-09-07T15:00:32.623Z,33.08
2023-09-07T15:03:05.778Z,33.02
2023-09-07T15:05:38.678Z,33.18
2023-09-07T15:08:11.311Z,32.91
2023-09-07T15:10:43.983Z,32.91
2023-09-07T15:13:16.631Z,33.13
2023-09-07T15:15:49.184Z,33.98
2023-09-07T15:18:21.938Z,33.98
2023-09-07T15:20:55.144Z,33.65
2023-09-07T15:23:28.159Z,33.65
2023-09-07T15:26:00.752Z,34.30
2023-09-07T15:28:34.147Z,34.56
2023-09-07T15:31:07.177Z,34.70
2023-09-07T15:33:40.264Z,35.10
2023-09-07T15:36:14.754Z,35.13
2023-09-07T15:38:47.300Z,35.52
2023-09-07T15:41:19.879Z,35.54
2023-09-07T15:43:52.620Z,35.90
2023-09-07T15:46:26.098Z,35.87
2023-09-07T15:48:58.627Z,36.08
2023-09-07T15:51:32.040Z,36.06
2023-09-07T15:54:06.059Z,36.41
2023-09-07T15:56:38.699Z,36.67
2023-09-07T15:59:12.445Z,36.88
2023-09-07T16:01:45.272Z,37.37
2023-09-07T16:04:17.780Z,38.43
2023-09-07T16:06:50.448Z,38.78
2023-09-07T16:09:24.149Z,38.14
2023-09-07T16:11:57.013Z,38.31
2023-09-07T16:14:31.208Z,38.61
2023-09-07T16:17:03.859Z,38.99
2023-09-07T16:19:36.376Z,39.09
2023-09-07T16:22:10.178Z,38.71
2023-09-07T16:24:42.805Z,39.12
2023-09-07T16:27:15.188Z,38.95
2023-09-07T16:29:47.923Z,38.57
2023-09-07T16:32:20.540Z,38.70
2023-09-07T16:34:54.418Z,38.89
2023-09-07T16:37:27.725Z,38.96
2023-09-07T16:40:00.402Z,38.70
2023-09-07T16:42:33.559Z,39.45
2023-09-07T16:45:07.089Z,39.11
2023-09-07T16:47:39.606Z,39.23
2023-09-07T16:50:12.419Z,39.52
2023-09-07T16:52:45.064Z,39.61
2023-09-07T16:55:17.564Z,39.15
2023-09-07T16:57:50.400Z,39.39
2023-09-07T17:00:22.977Z,39.79
2023-09-07T17:02:55.740Z,39.73
2023-09-07T17:05:28.342Z,39.45
2023-09-07T17:08:00.941Z,39.60
2023-09-07T17:10:35.622Z,39.56
2023-09-07T17:13:08.354Z,39.33
2023-09-07T17:15:41.036Z,39.84
2023-09-07T17:18:13.880Z,40.05
2023-09-07T17:20:46.486Z,40.17
2023-09-07T17:23:19.292Z,40.21
2023-09-07T17:25:51.898Z,40.27
2023-09-07T17:28:24.813Z,40.70
2023-09-07T17:30:57.799Z,40.66
2023-09-07T17:33:30.646Z,40.54
2023-09-07T17:36:03.250Z,40.15
2023-09-07T17:38:36.365Z,40.67
2023-09-07T17:41:10.748Z,40.20
2023-09-07T17:43:43.585Z,40.79
2023-09-07T17:46:15.990Z,40.69
2023-09-07T17:48:48.844Z,41.13
2023-09-07T17:51:21.265Z,41.07
2023-09-07T17:53:54.606Z,40.74
2023-09-07T17:56:27.114Z,40.54
2023-09-07T17:59:00.559Z,40.55
2023-09-07T18:01:33.195Z,40.96
2023-09-07T18:04:06.389Z,41.02
2023-09-07T18:06:38.817Z,41.32
2023-09-07T18:09:11.386Z,41.47
2023-09-07T18:11:45.420Z,41.64
2023-09-07T18:14:18.023Z,41.98
2023-09-07T18:16:50.527Z,42.13
2023-09-07T18:19:23.129Z,42.49
2023-09-07T18:21:55.555Z,43.25
2023-09-07T18:24:28.421Z,43.29
2023-09-07T18:27:01.954Z,43.62
2023-09-07T18:29:36.229Z,44.17
2023-09-07T18:32:09.314Z,44.17
2023-09-07T18:34:41.898Z,44.26
2023-09-07T18:37:14.922Z,44.84
2023-09-07T18:39:47.623Z,44.79
2023-09-07T18:42:20.189Z,44.93
2023-09-07T18:44:54.320Z,44.68
2023-09-07T18:47:27.239Z,44.44
2023-09-07T18:49:59.827Z,44.27
2023-09-07T18:52:32.928Z,44.34
2023-09-07T18:55:09.408Z,44.46
2023-09-07T18:57:42.022Z,44.63
2023-09-07T19:00:16.763Z,44.71
2023-09-07T19:02:50.464Z,44.80
2023-09-07T19:05:23.110Z,44.75
2023-09-07T19:07:55.719Z,44.97
2023-09-07T19:10:28.589Z,45.13
2023-09-07T19:13:01.605Z,45.19
2023-09-07T19:15:34.268Z,45.06
2023-09-07T19:18:07.857Z,45.24
2023-09-07T19:20:40.733Z,45.58
2023-09-07T19:23:13.287Z,45.26
2023-09-07T19:25:45.659Z,45.49
2023-09-07T19:28:18.236Z,45.40
2023-09-07T19:30:50.714Z,45.67
2023-09-07T19:33:23.459Z,45.39
2023-09-07T19:35:55.942Z,45.41
2023-09-07T19:38:28.326Z,45.42
2023-09-07T19:41:00.964Z,45.37
2023-09-07T19:43:33.391Z,45.74
2023-09-07T19:46:06.012Z,45.80
2023-09-07T19:48:39.716Z,45.72
2023-09-07T19:51:20.207Z,46.54
2023-09-07T19:53:52.778Z,46.42
2023-09-07T19:56:27.819Z,46.45
2023-09-07T19:59:00.538Z,46.63
2023-09-07T20:01:35.662Z,46.63
2023-09-07T20:04:13.152Z,46.19
2023-09-07T20:06:45.763Z,46.55
2023-09-07T20:09:19.162Z,47.00
2023-09-07T20:11:51.584Z,46.76
2023-09-07T20:14:24.181Z,46.77
2023-09-07T20:16:56.610Z,46.94
2023-09-07T20:19:32.389Z,47.03
2023-09-07T20:22:04.810Z,47.01
2023-09-07T20:24:37.469Z,47.16
2023-09-07T20:27:09.856Z,47.29
2023-09-07T20:29:42.417Z,47.55
2023-09-07T20:32:15.011Z,47.80
2023-09-07T20:34:47.598Z,47.97
2023-09-07T20:37:20.060Z,48.27
2023-09-07T20:39:54.144Z,48.68
2023-09-07T20:42:26.762Z,49.14
2023-09-07T20:44:59.278Z,49.43
2023-09-07T20:47:31.973Z,49.67
2023-09-07T20:50:04.709Z,49.91
2023-09-07T20:52:37.277Z,50.27
2023-09-07T20:55:11.047Z,50.52
2023-09-07T20:57:43.522Z,50.78
2023-09-07T21:00:16.878Z,50.89
2023-09-07T21:02:50.053Z,51.06
2023-09-07T21:05:22.759Z,51.13
2023-09-07T21:07:56.937Z,51.25
2023-09-07T21:10:29.393Z,51.45
2023-09-07T21:13:02.050Z,51.59
2023-09-07T21:15:34.425Z,52.12
2023-09-07T21:18:07.994Z,52.05
2023-09-07T21:20:40.560Z,52.44
2023-09-07T21:23:12.982Z,52.55
2023-09-07T21:25:45.449Z,52.76
2023-09-07T21:28:17.925Z,52.29
2023-09-07T21:30:50.528Z,51.90
2023-09-07T21:33:23.113Z,51.71
2023-09-07T21:35:56.842Z,51.00
2023-09-07T21:38:29.241Z,51.44
2023-09-07T21:41:01.823Z,51.05
2023-09-07T21:43:34.366Z,51.06
2023-09-07T21:46:06.964Z,51.30
2023-09-07T21:48:39.590Z,50.97
2023-09-07T21:51:13.364Z,50.93
2023-09-07T21:53:46.039Z,51.14
2023-09-07T21:56:18.691Z,50.62
2023-09-07T21:58:51.498Z,50.95
2023-09-07T22:01:23.825Z,50.91
2023-09-07T22:03:56.399Z,51.16
2023-09-07T22:06:29.342Z,51.14
2023-09-07T22:09:02.764Z,51.28
2023-09-07T22:11:35.242Z,51.43
2023-09-07T22:14:07.728Z,51.55
2023-09-07T22:16:41.069Z,51.44
2023-09-07T22:19:13.945Z,51.53
2023-09-07T22:21:46.618Z,51.57
2023-09-07T22:24:19.184Z,51.37
2023-09-07T22:26:52.664Z,51.23
2023-09-07T22:29:26.050Z,52.11
2023-09-07T22:31:58.492Z,51.89
2023-09-07T22:34:32.728Z,52.01
2023-09-07T22:37:05.220Z,52.10
2023-09-07T22:39:37.826Z,52.17
2023-09-07T22:42:10.299Z,51.87
2023-09-07T22:44:42.821Z,51.87
2023-09-07T22:47:15.273Z,52.08
2023-09-07T22:49:47.700Z,52.62
2023-09-07T22:52:19.972Z,52.63
2023-09-07T22:54:52.371Z,52.78
2023-09-07T22:57:24.952Z,53.27
2023-09-07T22:59:57.933Z,53.30
2023-09-07T23:02:30.501Z,53.37
2023-09-07T23:05:02.974Z,53.08
2023-09-07T23:07:35.695Z,52.47
2023-09-07T23:10:08.679Z,52.64
2023-09-07T23:12:41.883Z,52.80
2023-09-07T23:15:14.371Z,53.02
2023-09-07T23:17:48.894Z,53.10
2023-09-07T23:20:21.003Z,53.30
2023-09-07T23:22:53.199Z,53.09
2023-09-07T23:25:25.799Z,53.25
2023-09-07T23:27:59.152Z,52.99
2023-09-07T23:30:31.704Z,53.32
2023-09-07T23:33:05.658Z,53.78
2023-09-07T23:35:38.091Z,53.68
2023-09-07T23:38:10.579Z,53.79
2023-09-07T23:40:43.983Z,54.16
2023-09-07T23:43:16.649Z,54.47
2023-09-07T23:45:49.108Z,54.52
2023-09-07T23:48:21.813Z,54.31
2023-09-07T23:50:54.204Z,54.56
2023-09-07T23:53:26.963Z,54.84
2023-09-07T23:55:59.936Z,54.68
2023-09-07T23:58:32.841Z,54.63
